sensor_id;sensor_type;location;lat;lon;timestamp;temperature;humidity
7738;DHT22;29398;45.328;5.558;2022-08-07T00:00:48;24.60;67.90
7738;DHT22;29398;45.328;5.558;2022-08-07T00:01:49;24.60;67.80
7738;DHT22;29398;45.328;5.558;2022-08-07T00:02:51;24.60;68.00
7738;DHT22;29398;45.328;5.558;2022-08-07T00:03:52;24.60;67.90
7738;DHT22;29398;45.328;5.558;2022-08-07T00:04:54;24.60;68.00
7738;DHT22;29398;45.328;5.558;2022-08-07T00:05:56;24.60;68.40
7738;DHT22;29398;45.328;5.558;2022-08-07T00:06:58;24.50;68.40
7738;DHT22;29398;45.328;5.558;2022-08-07T00:08:00;24.50;68.30
7738;DHT22;29398;45.328;5.558;2022-08-07T00:09:02;24.50;68.30
7738;DHT22;29398;45.328;5.558;2022-08-07T00:10:05;24.50;68.40
7738;DHT22;29398;45.328;5.558;2022-08-07T00:11:06;24.60;68.90
7738;DHT22;29398;45.328;5.558;2022-08-07T00:12:09;24.60;68.60
7738;DHT22;29398;45.328;5.558;2022-08-07T00:13:10;24.50;68.80
7738;DHT22;29398;45.328;5.558;2022-08-07T00:14:13;24.40;68.50
7738;DHT22;29398;45.328;5.558;2022-08-07T00:15:14;24.40;68.90
7738;DHT22;29398;45.328;5.558;2022-08-07T00:16:16;24.40;69.10
7738;DHT22;29398;45.328;5.558;2022-08-07T00:17:17;24.30;69.20
7738;DHT22;29398;45.328;5.558;2022-08-07T00:18:21;24.30;69.20
7738;DHT22;29398;45.328;5.558;2022-08-07T00:19:22;24.30;69.20
7738;DHT22;29398;45.328;5.558;2022-08-07T00:20:24;24.30;70.30
7738;DHT22;29398;45.328;5.558;2022-08-07T00:21:25;24.30;69.60
7738;DHT22;29398;45.328;5.558;2022-08-07T00:22:28;24.30;69.80
7738;DHT22;29398;45.328;5.558;2022-08-07T00:23:29;24.20;69.80
7738;DHT22;29398;45.328;5.558;2022-08-07T00:24:33;24.20;70.10
7738;DHT22;29398;45.328;5.558;2022-08-07T00:25:35;24.20;70.80
7738;DHT22;29398;45.328;5.558;2022-08-07T00:26:37;24.20;70.40
7738;DHT22;29398;45.328;5.558;2022-08-07T00:27:39;24.20;70.70
7738;DHT22;29398;45.328;5.558;2022-08-07T00:28:40;24.10;70.40
7738;DHT22;29398;45.328;5.558;2022-08-07T00:29:44;24.10;70.70
7738;DHT22;29398;45.328;5.558;2022-08-07T00:30:45;24.10;70.90
7738;DHT22;29398;45.328;5.558;2022-08-07T00:31:47;24.00;70.70
7738;DHT22;29398;45.328;5.558;2022-08-07T00:32:50;24.10;70.90
7738;DHT22;29398;45.328;5.558;2022-08-07T00:33:51;24.10;70.90
7738;DHT22;29398;45.328;5.558;2022-08-07T00:34:53;24.10;70.70
7738;DHT22;29398;45.328;5.558;2022-08-07T00:35:55;24.10;70.50
7738;DHT22;29398;45.328;5.558;2022-08-07T00:36:57;24.10;70.40
7738;DHT22;29398;45.328;5.558;2022-08-07T00:37:58;24.20;70.30
7738;DHT22;29398;45.328;5.558;2022-08-07T00:39:00;24.20;70.30
7738;DHT22;29398;45.328;5.558;2022-08-07T00:40:02;24.20;70.10
7738;DHT22;29398;45.328;5.558;2022-08-07T00:41:05;24.20;70.20
7738;DHT22;29398;45.328;5.558;2022-08-07T00:42:06;24.20;70.20
7738;DHT22;29398;45.328;5.558;2022-08-07T00:43:10;24.20;70.50
7738;DHT22;29398;45.328;5.558;2022-08-07T00:44:11;24.20;70.40
7738;DHT22;29398;45.328;5.558;2022-08-07T00:45:15;24.20;71.00
7738;DHT22;29398;45.328;5.558;2022-08-07T00:46:16;24.10;70.50
7738;DHT22;29398;45.328;5.558;2022-08-07T00:47:18;24.10;70.50
7738;DHT22;29398;45.328;5.558;2022-08-07T00:48:19;24.00;70.60
7738;DHT22;29398;45.328;5.558;2022-08-07T00:49:21;24.00;70.70
7738;DHT22;29398;45.328;5.558;2022-08-07T00:50:22;24.00;70.70
7738;DHT22;29398;45.328;5.558;2022-08-07T00:51:25;24.00;71.50
7738;DHT22;29398;45.328;5.558;2022-08-07T00:52:26;24.00;70.80
7738;DHT22;29398;45.328;5.558;2022-08-07T00:53:28;24.00;70.60
7738;DHT22;29398;45.328;5.558;2022-08-07T00:54:29;24.00;70.80
7738;DHT22;29398;45.328;5.558;2022-08-07T00:55:32;24.00;70.90
7738;DHT22;29398;45.328;5.558;2022-08-07T00:56:33;24.00;70.80
7738;DHT22;29398;45.328;5.558;2022-08-07T00:57:36;24.00;70.70
7738;DHT22;29398;45.328;5.558;2022-08-07T00:58:41;24.00;70.80
7738;DHT22;29398;45.328;5.558;2022-08-07T00:59:44;24.10;70.80
7738;DHT22;29398;45.328;5.558;2022-08-07T01:00:47;24.10;70.80
7738;DHT22;29398;45.328;5.558;2022-08-07T01:01:50;24.10;70.60
7738;DHT22;29398;45.328;5.558;2022-08-07T01:02:51;24.10;70.70
7738;DHT22;29398;45.328;5.558;2022-08-07T01:03:54;24.00;70.60
7738;DHT22;29398;45.328;5.558;2022-08-07T01:04:55;24.10;70.70
7738;DHT22;29398;45.328;5.558;2022-08-07T01:05:58;24.00;70.60
7738;DHT22;29398;45.328;5.558;2022-08-07T01:06:59;24.00;70.50
7738;DHT22;29398;45.328;5.558;2022-08-07T01:08:01;24.10;70.70
7738;DHT22;29398;45.328;5.558;2022-08-07T01:09:04;24.10;70.90
7738;DHT22;29398;45.328;5.558;2022-08-07T01:10:07;24.10;70.70
7738;DHT22;29398;45.328;5.558;2022-08-07T01:11:08;24.10;70.50
7738;DHT22;29398;45.328;5.558;2022-08-07T01:12:12;24.10;70.60
7738;DHT22;29398;45.328;5.558;2022-08-07T01:13:13;24.10;70.40
7738;DHT22;29398;45.328;5.558;2022-08-07T01:14:16;24.10;70.70
7738;DHT22;29398;45.328;5.558;2022-08-07T01:15:18;24.10;70.80
7738;DHT22;29398;45.328;5.558;2022-08-07T01:16:21;24.00;70.60
7738;DHT22;29398;45.328;5.558;2022-08-07T01:17:23;24.00;70.80
7738;DHT22;29398;45.328;5.558;2022-08-07T01:18:26;24.00;70.60
7738;DHT22;29398;45.328;5.558;2022-08-07T01:19:29;24.00;70.70
7738;DHT22;29398;45.328;5.558;2022-08-07T01:20:33;24.00;70.70
7738;DHT22;29398;45.328;5.558;2022-08-07T01:21:40;23.90;70.70
7738;DHT22;29398;45.328;5.558;2022-08-07T01:22:41;24.00;70.90
7738;DHT22;29398;45.328;5.558;2022-08-07T01:23:45;24.00;71.10
7738;DHT22;29398;45.328;5.558;2022-08-07T01:24:48;24.00;70.80
7738;DHT22;29398;45.328;5.558;2022-08-07T01:25:51;23.90;70.80
7738;DHT22;29398;45.328;5.558;2022-08-07T01:26:52;24.00;71.10
7738;DHT22;29398;45.328;5.558;2022-08-07T01:27:57;24.00;70.90
7738;DHT22;29398;45.328;5.558;2022-08-07T01:28:58;24.00;70.90
7738;DHT22;29398;45.328;5.558;2022-08-07T01:30:04;24.00;71.00
7738;DHT22;29398;45.328;5.558;2022-08-07T01:31:06;24.00;71.00
7738;DHT22;29398;45.328;5.558;2022-08-07T01:32:09;24.00;71.20
7738;DHT22;29398;45.328;5.558;2022-08-07T01:33:11;24.00;71.20
7738;DHT22;29398;45.328;5.558;2022-08-07T01:34:13;23.90;71.00
7738;DHT22;29398;45.328;5.558;2022-08-07T01:35:16;24.00;71.00
7738;DHT22;29398;45.328;5.558;2022-08-07T01:36:21;24.00;71.50
7738;DHT22;29398;45.328;5.558;2022-08-07T01:37:24;24.00;70.90
7738;DHT22;29398;45.328;5.558;2022-08-07T01:38:29;24.00;71.00
7738;DHT22;29398;45.328;5.558;2022-08-07T01:39:41;24.00;71.20
7738;DHT22;29398;45.328;5.558;2022-08-07T01:40:49;24.00;71.20
7738;DHT22;29398;45.328;5.558;2022-08-07T01:41:51;24.00;71.10
7738;DHT22;29398;45.328;5.558;2022-08-07T01:42:53;23.90;71.20
7738;DHT22;29398;45.328;5.558;2022-08-07T01:43:54;23.90;71.40
7738;DHT22;29398;45.328;5.558;2022-08-07T01:45:00;23.90;71.40
7738;DHT22;29398;45.328;5.558;2022-08-07T01:46:03;23.90;72.00
7738;DHT22;29398;45.328;5.558;2022-08-07T01:47:07;23.80;71.30
7738;DHT22;29398;45.328;5.558;2022-08-07T01:48:09;23.80;71.70
7738;DHT22;29398;45.328;5.558;2022-08-07T01:49:12;23.80;71.80
7738;DHT22;29398;45.328;5.558;2022-08-07T01:50:13;23.80;71.60
7738;DHT22;29398;45.328;5.558;2022-08-07T01:51:18;23.70;71.90
7738;DHT22;29398;45.328;5.558;2022-08-07T01:52:21;23.80;71.80
7738;DHT22;29398;45.328;5.558;2022-08-07T01:53:27;23.70;71.80
7738;DHT22;29398;45.328;5.558;2022-08-07T01:54:35;23.70;72.10
7738;DHT22;29398;45.328;5.558;2022-08-07T01:55:44;23.70;71.90
7738;DHT22;29398;45.328;5.558;2022-08-07T01:56:53;23.70;71.90
7738;DHT22;29398;45.328;5.558;2022-08-07T01:57:57;23.70;71.90
7738;DHT22;29398;45.328;5.558;2022-08-07T01:59:04;23.70;72.80
7738;DHT22;29398;45.328;5.558;2022-08-07T02:00:08;23.80;71.90
7738;DHT22;29398;45.328;5.558;2022-08-07T02:01:17;23.70;72.00
7738;DHT22;29398;45.328;5.558;2022-08-07T02:02:24;23.70;71.90
7738;DHT22;29398;45.328;5.558;2022-08-07T02:03:30;23.70;72.00
7738;DHT22;29398;45.328;5.558;2022-08-07T02:04:39;23.60;72.20
7738;DHT22;29398;45.328;5.558;2022-08-07T02:05:49;23.60;72.30
7738;DHT22;29398;45.328;5.558;2022-08-07T02:06:58;23.60;73.50
7738;DHT22;29398;45.328;5.558;2022-08-07T02:08:05;23.60;73.40
7738;DHT22;29398;45.328;5.558;2022-08-07T02:09:16;23.60;72.60
7738;DHT22;29398;45.328;5.558;2022-08-07T02:10:22;23.60;73.20
7738;DHT22;29398;45.328;5.558;2022-08-07T02:11:25;23.60;73.10
7738;DHT22;29398;45.328;5.558;2022-08-07T02:12:31;23.60;73.00
7738;DHT22;29398;45.328;5.558;2022-08-07T02:13:35;23.60;73.30
7738;DHT22;29398;45.328;5.558;2022-08-07T02:14:37;23.60;73.30
7738;DHT22;29398;45.328;5.558;2022-08-07T02:15:41;23.60;73.20
7738;DHT22;29398;45.328;5.558;2022-08-07T02:16:44;23.60;73.50
7738;DHT22;29398;45.328;5.558;2022-08-07T02:17:48;23.50;73.10
7738;DHT22;29398;45.328;5.558;2022-08-07T02:18:51;23.60;73.20
7738;DHT22;29398;45.328;5.558;2022-08-07T02:19:58;23.60;73.10
7738;DHT22;29398;45.328;5.558;2022-08-07T02:21:03;23.50;73.20
7738;DHT22;29398;45.328;5.558;2022-08-07T02:22:06;23.50;73.30
7738;DHT22;29398;45.328;5.558;2022-08-07T02:23:07;23.50;73.30
7738;DHT22;29398;45.328;5.558;2022-08-07T02:24:12;23.50;73.40
7738;DHT22;29398;45.328;5.558;2022-08-07T02:25:17;23.50;73.20
7738;DHT22;29398;45.328;5.558;2022-08-07T02:26:31;23.60;73.60
7738;DHT22;29398;45.328;5.558;2022-08-07T02:27:34;23.60;73.50
7738;DHT22;29398;45.328;5.558;2022-08-07T02:28:37;23.50;73.60
7738;DHT22;29398;45.328;5.558;2022-08-07T02:29:40;23.60;73.40
7738;DHT22;29398;45.328;5.558;2022-08-07T02:30:43;23.60;73.50
7738;DHT22;29398;45.328;5.558;2022-08-07T02:31:45;23.60;73.50
7738;DHT22;29398;45.328;5.558;2022-08-07T02:32:50;23.50;73.80
7738;DHT22;29398;45.328;5.558;2022-08-07T02:33:53;23.50;73.90
7738;DHT22;29398;45.328;5.558;2022-08-07T02:34:58;23.50;73.50
7738;DHT22;29398;45.328;5.558;2022-08-07T02:36:01;23.50;73.60
7738;DHT22;29398;45.328;5.558;2022-08-07T02:37:08;23.50;73.60
7738;DHT22;29398;45.328;5.558;2022-08-07T02:38:14;23.50;73.60
7738;DHT22;29398;45.328;5.558;2022-08-07T02:39:19;23.50;73.80
7738;DHT22;29398;45.328;5.558;2022-08-07T02:40:22;23.50;74.00
7738;DHT22;29398;45.328;5.558;2022-08-07T02:41:25;23.50;73.80
7738;DHT22;29398;45.328;5.558;2022-08-07T02:42:27;23.50;74.00
7738;DHT22;29398;45.328;5.558;2022-08-07T02:43:30;23.40;73.90
7738;DHT22;29398;45.328;5.558;2022-08-07T02:44:34;23.40;73.90
7738;DHT22;29398;45.328;5.558;2022-08-07T02:45:41;23.40;73.90
7738;DHT22;29398;45.328;5.558;2022-08-07T02:46:45;23.40;74.00
7738;DHT22;29398;45.328;5.558;2022-08-07T02:47:47;23.40;74.20
7738;DHT22;29398;45.328;5.558;2022-08-07T02:48:51;23.40;74.10
7738;DHT22;29398;45.328;5.558;2022-08-07T02:49:52;23.40;74.00
7738;DHT22;29398;45.328;5.558;2022-08-07T02:50:54;23.40;74.00
7738;DHT22;29398;45.328;5.558;2022-08-07T02:51:58;23.40;74.10
7738;DHT22;29398;45.328;5.558;2022-08-07T02:53:05;23.40;74.10
7738;DHT22;29398;45.328;5.558;2022-08-07T02:54:08;23.40;74.00
7738;DHT22;29398;45.328;5.558;2022-08-07T02:55:17;23.40;74.00
7738;DHT22;29398;45.328;5.558;2022-08-07T02:56:21;23.40;74.20
7738;DHT22;29398;45.328;5.558;2022-08-07T02:57:24;23.40;74.10
7738;DHT22;29398;45.328;5.558;2022-08-07T02:58:26;23.40;74.20
7738;DHT22;29398;45.328;5.558;2022-08-07T02:59:31;23.40;74.60
7738;DHT22;29398;45.328;5.558;2022-08-07T03:00:37;23.30;74.40
7738;DHT22;29398;45.328;5.558;2022-08-07T03:01:42;23.30;74.50
7738;DHT22;29398;45.328;5.558;2022-08-07T03:02:48;23.30;74.50
7738;DHT22;29398;45.328;5.558;2022-08-07T03:03:54;23.20;74.50
7738;DHT22;29398;45.328;5.558;2022-08-07T03:05:01;23.30;74.70
7738;DHT22;29398;45.328;5.558;2022-08-07T03:06:04;23.20;74.40
7738;DHT22;29398;45.328;5.558;2022-08-07T03:07:06;23.30;74.60
7738;DHT22;29398;45.328;5.558;2022-08-07T03:08:09;23.30;74.70
7738;DHT22;29398;45.328;5.558;2022-08-07T03:09:14;23.30;74.80
7738;DHT22;29398;45.328;5.558;2022-08-07T03:10:19;23.20;75.40
7738;DHT22;29398;45.328;5.558;2022-08-07T03:11:22;23.30;74.70
7738;DHT22;29398;45.328;5.558;2022-08-07T03:12:24;23.30;74.80
7738;DHT22;29398;45.328;5.558;2022-08-07T03:13:29;23.30;74.80
7738;DHT22;29398;45.328;5.558;2022-08-07T03:14:32;23.20;74.80
7738;DHT22;29398;45.328;5.558;2022-08-07T03:15:36;23.20;74.80
7738;DHT22;29398;45.328;5.558;2022-08-07T03:16:38;23.30;74.90
7738;DHT22;29398;45.328;5.558;2022-08-07T03:17:41;23.20;74.90
7738;DHT22;29398;45.328;5.558;2022-08-07T03:18:45;23.30;74.80
7738;DHT22;29398;45.328;5.558;2022-08-07T03:19:47;23.30;75.00
7738;DHT22;29398;45.328;5.558;2022-08-07T03:20:49;23.20;74.90
7738;DHT22;29398;45.328;5.558;2022-08-07T03:21:51;23.20;75.20
7738;DHT22;29398;45.328;5.558;2022-08-07T03:22:54;23.20;75.20
7738;DHT22;29398;45.328;5.558;2022-08-07T03:23:57;23.20;75.20
7738;DHT22;29398;45.328;5.558;2022-08-07T03:25:01;23.30;75.30
7738;DHT22;29398;45.328;5.558;2022-08-07T03:26:13;23.20;75.30
7738;DHT22;29398;45.328;5.558;2022-08-07T03:27:18;23.20;75.60
7738;DHT22;29398;45.328;5.558;2022-08-07T03:28:21;23.20;75.50
7738;DHT22;29398;45.328;5.558;2022-08-07T03:29:24;23.20;75.50
7738;DHT22;29398;45.328;5.558;2022-08-07T03:30:27;23.10;75.50
7738;DHT22;29398;45.328;5.558;2022-08-07T03:31:30;23.10;75.50
7738;DHT22;29398;45.328;5.558;2022-08-07T03:32:36;23.20;75.80
7738;DHT22;29398;45.328;5.558;2022-08-07T03:33:39;23.10;75.70
7738;DHT22;29398;45.328;5.558;2022-08-07T03:34:44;23.10;75.90
7738;DHT22;29398;45.328;5.558;2022-08-07T03:35:47;23.10;75.40
7738;DHT22;29398;45.328;5.558;2022-08-07T03:36:50;23.00;76.10
7738;DHT22;29398;45.328;5.558;2022-08-07T03:37:55;23.10;76.20
7738;DHT22;29398;45.328;5.558;2022-08-07T03:39:03;23.10;76.20
7738;DHT22;29398;45.328;5.558;2022-08-07T03:40:06;23.10;77.00
7738;DHT22;29398;45.328;5.558;2022-08-07T03:41:12;23.10;76.30
7738;DHT22;29398;45.328;5.558;2022-08-07T03:42:16;23.00;76.30
7738;DHT22;29398;45.328;5.558;2022-08-07T03:43:20;23.00;76.20
7738;DHT22;29398;45.328;5.558;2022-08-07T03:44:26;23.00;76.30
7738;DHT22;29398;45.328;5.558;2022-08-07T03:45:27;23.00;76.50
7738;DHT22;29398;45.328;5.558;2022-08-07T03:46:34;23.00;77.30
7738;DHT22;29398;45.328;5.558;2022-08-07T03:47:37;23.00;76.70
7738;DHT22;29398;45.328;5.558;2022-08-07T03:48:41;22.90;77.10
7738;DHT22;29398;45.328;5.558;2022-08-07T03:49:42;22.90;77.40
7738;DHT22;29398;45.328;5.558;2022-08-07T03:50:45;22.90;77.20
7738;DHT22;29398;45.328;5.558;2022-08-07T03:51:47;22.90;77.40
7738;DHT22;29398;45.328;5.558;2022-08-07T03:52:52;22.90;77.10
7738;DHT22;29398;45.328;5.558;2022-08-07T03:53:54;22.90;77.10
7738;DHT22;29398;45.328;5.558;2022-08-07T03:54:56;22.80;77.20
7738;DHT22;29398;45.328;5.558;2022-08-07T03:55:58;22.80;77.10
7738;DHT22;29398;45.328;5.558;2022-08-07T03:57:04;22.70;77.30
7738;DHT22;29398;45.328;5.558;2022-08-07T03:58:06;22.60;77.40
7738;DHT22;29398;45.328;5.558;2022-08-07T03:59:11;22.60;77.60
7738;DHT22;29398;45.328;5.558;2022-08-07T04:00:15;22.60;77.80
7738;DHT22;29398;45.328;5.558;2022-08-07T04:01:22;22.50;77.90
7738;DHT22;29398;45.328;5.558;2022-08-07T04:02:24;22.50;78.30
7738;DHT22;29398;45.328;5.558;2022-08-07T04:03:27;22.40;78.70
7738;DHT22;29398;45.328;5.558;2022-08-07T04:04:28;22.30;78.60
7738;DHT22;29398;45.328;5.558;2022-08-07T04:05:35;22.20;78.80
7738;DHT22;29398;45.328;5.558;2022-08-07T04:06:37;22.20;79.20
7738;DHT22;29398;45.328;5.558;2022-08-07T04:07:48;22.10;79.00
7738;DHT22;29398;45.328;5.558;2022-08-07T04:08:54;22.10;79.10
7738;DHT22;29398;45.328;5.558;2022-08-07T04:09:56;22.10;79.50
7738;DHT22;29398;45.328;5.558;2022-08-07T04:10:59;22.10;80.10
7738;DHT22;29398;45.328;5.558;2022-08-07T04:12:03;22.10;80.10
7738;DHT22;29398;45.328;5.558;2022-08-07T04:13:05;22.00;79.70
7738;DHT22;29398;45.328;5.558;2022-08-07T04:14:08;22.00;79.90
7738;DHT22;29398;45.328;5.558;2022-08-07T04:15:11;22.00;80.20
7738;DHT22;29398;45.328;5.558;2022-08-07T04:16:13;22.00;80.10
7738;DHT22;29398;45.328;5.558;2022-08-07T04:17:15;22.00;80.40
7738;DHT22;29398;45.328;5.558;2022-08-07T04:18:18;22.00;80.30
7738;DHT22;29398;45.328;5.558;2022-08-07T04:19:20;21.90;80.30
7738;DHT22;29398;45.328;5.558;2022-08-07T04:20:25;21.90;80.70
7738;DHT22;29398;45.328;5.558;2022-08-07T04:21:27;21.90;80.90
7738;DHT22;29398;45.328;5.558;2022-08-07T04:22:30;21.90;81.40
7738;DHT22;29398;45.328;5.558;2022-08-07T04:23:36;21.80;80.80
7738;DHT22;29398;45.328;5.558;2022-08-07T04:24:39;21.80;80.80
7738;DHT22;29398;45.328;5.558;2022-08-07T04:25:42;21.80;80.90
7738;DHT22;29398;45.328;5.558;2022-08-07T04:26:46;21.80;81.10
7738;DHT22;29398;45.328;5.558;2022-08-07T04:27:49;21.90;81.10
7738;DHT22;29398;45.328;5.558;2022-08-07T04:28:51;21.80;81.10
7738;DHT22;29398;45.328;5.558;2022-08-07T04:29:53;21.90;81.20
7738;DHT22;29398;45.328;5.558;2022-08-07T04:30:55;21.90;81.20
7738;DHT22;29398;45.328;5.558;2022-08-07T04:32:02;21.90;81.20
7738;DHT22;29398;45.328;5.558;2022-08-07T04:33:06;21.90;81.20
7738;DHT22;29398;45.328;5.558;2022-08-07T04:34:09;21.90;81.70
7738;DHT22;29398;45.328;5.558;2022-08-07T04:35:11;21.80;81.30
7738;DHT22;29398;45.328;5.558;2022-08-07T04:36:14;21.80;81.50
7738;DHT22;29398;45.328;5.558;2022-08-07T04:37:17;21.80;82.20
7738;DHT22;29398;45.328;5.558;2022-08-07T04:38:19;21.80;81.80
7738;DHT22;29398;45.328;5.558;2022-08-07T04:39:22;21.80;81.90
7738;DHT22;29398;45.328;5.558;2022-08-07T04:40:24;21.80;85.90
7738;DHT22;29398;45.328;5.558;2022-08-07T04:41:26;21.80;82.50
7738;DHT22;29398;45.328;5.558;2022-08-07T04:42:27;21.70;82.30
7738;DHT22;29398;45.328;5.558;2022-08-07T04:43:36;21.70;82.40
7738;DHT22;29398;45.328;5.558;2022-08-07T04:44:38;21.70;82.40
7738;DHT22;29398;45.328;5.558;2022-08-07T04:45:45;21.70;82.70
7738;DHT22;29398;45.328;5.558;2022-08-07T04:46:54;21.70;83.60
7738;DHT22;29398;45.328;5.558;2022-08-07T04:48:06;21.60;83.50
7738;DHT22;29398;45.328;5.558;2022-08-07T04:49:14;21.60;83.40
7738;DHT22;29398;45.328;5.558;2022-08-07T04:50:26;21.60;83.80
7738;DHT22;29398;45.328;5.558;2022-08-07T04:51:50;21.60;84.00
7738;DHT22;29398;45.328;5.558;2022-08-07T04:53:00;21.50;84.30
7738;DHT22;29398;45.328;5.558;2022-08-07T04:55:17;21.50;83.60
7738;DHT22;29398;45.328;5.558;2022-08-07T04:56:25;21.50;84.40
7738;DHT22;29398;45.328;5.558;2022-08-07T04:57:31;21.60;84.50
7738;DHT22;29398;45.328;5.558;2022-08-07T04:58:38;21.60;84.80
7738;DHT22;29398;45.328;5.558;2022-08-07T04:59:47;21.50;84.50
7738;DHT22;29398;45.328;5.558;2022-08-07T05:00:54;21.50;84.70
7738;DHT22;29398;45.328;5.558;2022-08-07T05:02:03;21.50;84.60
7738;DHT22;29398;45.328;5.558;2022-08-07T05:03:13;21.50;85.20
7738;DHT22;29398;45.328;5.558;2022-08-07T05:04:24;21.60;84.90
7738;DHT22;29398;45.328;5.558;2022-08-07T05:05:34;21.60;85.30
7738;DHT22;29398;45.328;5.558;2022-08-07T05:06:44;21.60;85.40
7738;DHT22;29398;45.328;5.558;2022-08-07T05:07:55;21.60;85.00
7738;DHT22;29398;45.328;5.558;2022-08-07T05:09:02;21.60;85.00
7738;DHT22;29398;45.328;5.558;2022-08-07T05:10:15;21.70;85.30
7738;DHT22;29398;45.328;5.558;2022-08-07T05:11:23;21.70;86.00
7738;DHT22;29398;45.328;5.558;2022-08-07T05:12:30;21.70;85.20
7738;DHT22;29398;45.328;5.558;2022-08-07T05:13:44;21.60;85.40
7738;DHT22;29398;45.328;5.558;2022-08-07T05:14:48;21.60;85.50
7738;DHT22;29398;45.328;5.558;2022-08-07T05:15:53;21.60;85.50
7738;DHT22;29398;45.328;5.558;2022-08-07T05:17:00;21.60;85.80
7738;DHT22;29398;45.328;5.558;2022-08-07T05:18:06;21.70;85.60
7738;DHT22;29398;45.328;5.558;2022-08-07T05:19:12;21.70;85.70
7738;DHT22;29398;45.328;5.558;2022-08-07T05:20:18;21.70;85.20
7738;DHT22;29398;45.328;5.558;2022-08-07T05:21:26;21.80;85.40
7738;DHT22;29398;45.328;5.558;2022-08-07T05:22:28;21.80;85.30
7738;DHT22;29398;45.328;5.558;2022-08-07T05:23:35;21.90;85.40
7738;DHT22;29398;45.328;5.558;2022-08-07T05:24:40;21.90;85.30
7738;DHT22;29398;45.328;5.558;2022-08-07T05:25:43;22.00;85.90
7738;DHT22;29398;45.328;5.558;2022-08-07T05:26:49;22.00;85.10
7738;DHT22;29398;45.328;5.558;2022-08-07T05:27:52;22.10;85.20
7738;DHT22;29398;45.328;5.558;2022-08-07T05:28:59;22.10;84.90
7738;DHT22;29398;45.328;5.558;2022-08-07T05:30:04;22.10;85.20
7738;DHT22;29398;45.328;5.558;2022-08-07T05:31:06;22.10;85.20
7738;DHT22;29398;45.328;5.558;2022-08-07T05:32:09;22.10;85.30
7738;DHT22;29398;45.328;5.558;2022-08-07T05:33:12;22.10;85.20
7738;DHT22;29398;45.328;5.558;2022-08-07T05:34:16;22.10;85.10
7738;DHT22;29398;45.328;5.558;2022-08-07T05:35:21;22.10;85.20
7738;DHT22;29398;45.328;5.558;2022-08-07T05:36:24;22.20;85.40
7738;DHT22;29398;45.328;5.558;2022-08-07T05:37:27;22.20;85.40
7738;DHT22;29398;45.328;5.558;2022-08-07T05:38:36;22.20;85.40
7738;DHT22;29398;45.328;5.558;2022-08-07T05:39:40;22.20;85.40
7738;DHT22;29398;45.328;5.558;2022-08-07T05:40:43;22.20;85.80
7738;DHT22;29398;45.328;5.558;2022-08-07T05:41:45;22.20;85.80
7738;DHT22;29398;45.328;5.558;2022-08-07T05:42:49;22.20;85.80
7738;DHT22;29398;45.328;5.558;2022-08-07T05:43:53;22.20;85.60
7738;DHT22;29398;45.328;5.558;2022-08-07T05:44:58;22.30;85.60
7738;DHT22;29398;45.328;5.558;2022-08-07T05:46:00;22.30;85.50
7738;DHT22;29398;45.328;5.558;2022-08-07T05:47:03;22.40;85.30
7738;DHT22;29398;45.328;5.558;2022-08-07T05:48:06;22.40;85.30
7738;DHT22;29398;45.328;5.558;2022-08-07T05:49:15;22.40;85.10
7738;DHT22;29398;45.328;5.558;2022-08-07T05:50:20;22.40;85.20
7738;DHT22;29398;45.328;5.558;2022-08-07T05:51:23;22.50;85.20
7738;DHT22;29398;45.328;5.558;2022-08-07T05:52:24;22.50;85.20
7738;DHT22;29398;45.328;5.558;2022-08-07T05:53:27;22.50;85.00
7738;DHT22;29398;45.328;5.558;2022-08-07T05:54:28;22.60;85.40
7738;DHT22;29398;45.328;5.558;2022-08-07T05:55:32;22.70;85.40
7738;DHT22;29398;45.328;5.558;2022-08-07T05:56:35;22.70;85.30
7738;DHT22;29398;45.328;5.558;2022-08-07T05:57:38;22.80;84.90
7738;DHT22;29398;45.328;5.558;2022-08-07T05:58:40;22.80;84.90
7738;DHT22;29398;45.328;5.558;2022-08-07T05:59:46;22.90;84.50
7738;DHT22;29398;45.328;5.558;2022-08-07T06:00:51;22.90;84.50
7738;DHT22;29398;45.328;5.558;2022-08-07T06:01:53;23.00;84.50
7738;DHT22;29398;45.328;5.558;2022-08-07T06:02:57;23.00;84.30
7738;DHT22;29398;45.328;5.558;2022-08-07T06:04:00;23.10;84.10
7738;DHT22;29398;45.328;5.558;2022-08-07T06:05:12;23.20;84.10
7738;DHT22;29398;45.328;5.558;2022-08-07T06:06:15;23.20;83.90
7738;DHT22;29398;45.328;5.558;2022-08-07T06:07:18;23.20;83.50
7738;DHT22;29398;45.328;5.558;2022-08-07T06:08:20;23.30;82.90
7738;DHT22;29398;45.328;5.558;2022-08-07T06:09:23;23.30;83.40
7738;DHT22;29398;45.328;5.558;2022-08-07T06:10:26;23.30;83.30
7738;DHT22;29398;45.328;5.558;2022-08-07T06:11:28;23.40;83.20
7738;DHT22;29398;45.328;5.558;2022-08-07T06:12:31;23.50;83.10
7738;DHT22;29398;45.328;5.558;2022-08-07T06:13:32;23.50;82.70
7738;DHT22;29398;45.328;5.558;2022-08-07T06:14:34;23.60;82.50
7738;DHT22;29398;45.328;5.558;2022-08-07T06:15:39;23.60;82.20
7738;DHT22;29398;45.328;5.558;2022-08-07T06:16:45;23.70;82.30
7738;DHT22;29398;45.328;5.558;2022-08-07T06:17:47;23.70;82.80
7738;DHT22;29398;45.328;5.558;2022-08-07T06:18:51;23.70;81.60
7738;DHT22;29398;45.328;5.558;2022-08-07T06:19:53;23.80;81.80
7738;DHT22;29398;45.328;5.558;2022-08-07T06:20:58;23.80;82.10
7738;DHT22;29398;45.328;5.558;2022-08-07T06:22:01;23.90;81.70
7738;DHT22;29398;45.328;5.558;2022-08-07T06:23:06;23.90;79.80
7738;DHT22;29398;45.328;5.558;2022-08-07T06:24:13;23.90;80.60
7738;DHT22;29398;45.328;5.558;2022-08-07T06:25:15;23.80;81.30
7738;DHT22;29398;45.328;5.558;2022-08-07T06:26:17;23.90;81.20
7738;DHT22;29398;45.328;5.558;2022-08-07T06:27:20;24.00;81.10
7738;DHT22;29398;45.328;5.558;2022-08-07T06:28:21;24.00;81.00
7738;DHT22;29398;45.328;5.558;2022-08-07T06:29:26;24.00;80.60
7738;DHT22;29398;45.328;5.558;2022-08-07T06:30:28;24.00;80.50
7738;DHT22;29398;45.328;5.558;2022-08-07T06:31:30;24.00;80.70
7738;DHT22;29398;45.328;5.558;2022-08-07T06:32:33;24.10;80.40
7738;DHT22;29398;45.328;5.558;2022-08-07T06:33:36;24.10;80.40
7738;DHT22;29398;45.328;5.558;2022-08-07T06:34:37;24.10;79.80
7738;DHT22;29398;45.328;5.558;2022-08-07T06:35:39;24.20;79.80
7738;DHT22;29398;45.328;5.558;2022-08-07T06:36:41;24.30;79.70
7738;DHT22;29398;45.328;5.558;2022-08-07T06:37:43;24.30;79.90
7738;DHT22;29398;45.328;5.558;2022-08-07T06:38:44;24.30;80.00
7738;DHT22;29398;45.328;5.558;2022-08-07T06:39:46;24.40;80.30
7738;DHT22;29398;45.328;5.558;2022-08-07T06:40:51;24.40;79.30
7738;DHT22;29398;45.328;5.558;2022-08-07T06:42:02;24.40;78.10
7738;DHT22;29398;45.328;5.558;2022-08-07T06:43:36;24.30;79.00
7738;DHT22;29398;45.328;5.558;2022-08-07T06:44:44;24.30;79.50
7738;DHT22;29398;45.328;5.558;2022-08-07T06:45:46;24.30;79.00
7738;DHT22;29398;45.328;5.558;2022-08-07T06:46:49;24.40;79.10
7738;DHT22;29398;45.328;5.558;2022-08-07T06:47:52;24.30;77.00
7738;DHT22;29398;45.328;5.558;2022-08-07T06:48:55;24.10;78.40
7738;DHT22;29398;45.328;5.558;2022-08-07T06:50:00;24.00;78.30
7738;DHT22;29398;45.328;5.558;2022-08-07T06:51:09;24.00;79.10
7738;DHT22;29398;45.328;5.558;2022-08-07T06:52:15;23.90;79.40